createdAt,value
2018-08-24T00:00:15.625Z,21.50
2018-08-24T00:02:43.191Z,21.40
2018-08-24T00:05:10.729Z,21.40
2018-08-24T00:07:38.314Z,21.40
2018-08-24T00:10:05.920Z,21.30
2018-08-24T00:12:33.459Z,21.30
2018-08-24T00:15:00.945Z,21.30
2018-08-24T00:17:29.864Z,21.30
2018-08-24T00:19:57.627Z,21.30
2018-08-24T00:22:25.188Z,21.30
2018-08-24T00:24:52.756Z,21.20
2018-08-24T00:27:21.136Z,21.20
2018-08-24T00:29:48.665Z,21.20
2018-08-24T00:32:16.235Z,21.20
2018-08-24T00:34:43.828Z,21.10
2018-08-24T00:37:11.400Z,21.10
2018-08-24T00:39:41.466Z,21.10
2018-08-24T00:42:08.960Z,21.10
2018-08-24T00:44:36.618Z,21.10
2018-08-24T00:47:04.116Z,21.00
2018-08-24T00:49:31.628Z,21.00
2018-08-24T00:51:59.182Z,21.10
2018-08-24T00:54:27.546Z,21.00
2018-08-24T00:56:55.053Z,20.90
2018-08-24T00:59:22.562Z,20.80
2018-08-24T01:01:50.044Z,20.80
2018-08-24T01:04:23.142Z,20.80
2018-08-24T01:06:50.834Z,20.80
2018-08-24T01:09:18.370Z,20.80
2018-08-24T01:11:51.569Z,20.80
2018-08-24T01:14:19.184Z,20.80
2018-08-24T01:16:52.210Z,20.70
2018-08-24T01:19:19.767Z,20.80
2018-08-24T01:21:47.394Z,20.80
2018-08-24T01:24:15.364Z,20.70
2018-08-24T01:26:47.501Z,20.70
2018-08-24T01:29:15.146Z,20.70
2018-08-24T01:31:42.638Z,20.70
2018-08-24T01:34:10.140Z,20.70
2018-08-24T01:36:37.625Z,20.70
2018-08-24T01:39:06.436Z,20.70
2018-08-24T01:41:33.943Z,20.80
2018-08-24T01:44:01.466Z,20.80
2018-08-24T01:46:29.014Z,20.90
2018-08-24T01:48:56.480Z,20.80
2018-08-24T01:51:23.960Z,20.80
2018-08-24T01:53:51.431Z,20.90
2018-08-24T01:56:18.950Z,20.90
2018-08-24T01:58:46.470Z,20.90
2018-08-24T02:01:14.024Z,21.00
2018-08-24T02:03:41.534Z,20.90
2018-08-24T02:06:09.028Z,20.90
2018-08-24T02:08:37.282Z,20.90
2018-08-24T02:11:10.922Z,20.90
2018-08-24T02:13:45.670Z,20.90
2018-08-24T02:16:13.218Z,21.00
2018-08-24T02:18:46.252Z,20.90
2018-08-24T02:21:19.397Z,20.90
2018-08-24T02:23:46.906Z,20.90
2018-08-24T02:26:14.418Z,21.00
2018-08-24T02:28:41.918Z,21.00
2018-08-24T02:31:09.464Z,21.00
2018-08-24T02:33:37.676Z,21.00
2018-08-24T02:36:05.313Z,21.00
2018-08-24T02:38:32.852Z,20.90
2018-08-24T02:41:00.342Z,21.00
2018-08-24T02:43:27.900Z,21.00
2018-08-24T02:45:55.390Z,20.90
2018-08-24T02:48:22.918Z,20.90
2018-08-24T02:50:50.481Z,20.90
2018-08-24T02:53:18.002Z,20.90
2018-08-24T02:55:45.553Z,20.90
2018-08-24T02:58:13.053Z,21.00
2018-08-24T03:00:40.541Z,20.90
2018-08-24T03:03:08.043Z,20.90
2018-08-24T03:05:35.707Z,21.00
2018-08-24T03:08:03.141Z,20.90
2018-08-24T03:10:30.635Z,20.90
2018-08-24T03:12:58.159Z,20.90
2018-08-24T03:15:25.643Z,20.90
2018-08-24T03:17:53.831Z,20.90
2018-08-24T03:20:22.019Z,21.00
2018-08-24T03:22:49.526Z,20.90
2018-08-24T03:25:17.067Z,20.90
2018-08-24T03:27:44.588Z,20.90
2018-08-24T03:30:12.101Z,21.00
2018-08-24T03:32:39.655Z,21.00
2018-08-24T03:35:07.197Z,21.00
2018-08-24T03:37:34.717Z,21.10
2018-08-24T03:40:02.225Z,21.10
2018-08-24T03:42:29.727Z,21.00
2018-08-24T03:44:57.255Z,21.00
2018-08-24T03:47:24.761Z,21.00
2018-08-24T03:49:52.297Z,21.00
2018-08-24T03:52:19.851Z,21.00
2018-08-24T03:54:47.360Z,21.00
2018-08-24T03:57:14.865Z,21.00
2018-08-24T03:59:42.333Z,21.00
2018-08-24T04:02:11.355Z,21.10
2018-08-24T04:04:39.078Z,21.10
2018-08-24T04:07:06.649Z,21.10
2018-08-24T04:09:34.189Z,21.20
2018-08-24T04:12:01.685Z,21.20
2018-08-24T04:14:29.175Z,21.20
2018-08-24T04:17:02.354Z,21.20
2018-08-24T04:19:29.979Z,21.30
2018-08-24T04:21:57.811Z,21.30
2018-08-24T04:24:25.339Z,21.30
2018-08-24T04:26:53.574Z,21.30
2018-08-24T04:29:21.432Z,21.30
2018-08-24T04:31:48.962Z,21.30
2018-08-24T04:34:16.488Z,21.20
2018-08-24T04:36:43.998Z,21.20
2018-08-24T04:39:12.268Z,21.20
2018-08-24T04:41:40.467Z,21.20
2018-08-24T04:44:08.425Z,21.20
2018-08-24T04:46:36.007Z,21.20
2018-08-24T04:49:03.689Z,21.20
2018-08-24T04:51:31.428Z,21.30
2018-08-24T04:53:58.957Z,21.30
2018-08-24T04:56:26.867Z,21.30
2018-08-24T04:58:54.359Z,21.30
2018-08-24T05:01:21.873Z,21.30
2018-08-24T05:03:49.409Z,21.30
2018-08-24T05:06:16.987Z,21.30
2018-08-24T05:08:44.492Z,21.30
2018-08-24T05:11:12.029Z,21.30
2018-08-24T05:13:39.569Z,21.40
2018-08-24T05:16:07.072Z,21.30
2018-08-24T05:18:34.613Z,21.30
2018-08-24T05:21:02.264Z,21.40
2018-08-24T05:23:29.801Z,21.30
2018-08-24T05:25:57.362Z,21.30
2018-08-24T05:28:24.861Z,21.30
2018-08-24T05:30:52.391Z,21.30
2018-08-24T05:33:19.981Z,21.30
2018-08-24T05:35:47.489Z,21.30
2018-08-24T05:38:14.933Z,21.30
2018-08-24T05:40:42.467Z,21.40
2018-08-24T05:43:09.997Z,21.40
2018-08-24T05:45:37.483Z,21.40
2018-08-24T05:48:04.984Z,21.50
2018-08-24T05:50:32.557Z,21.40
2018-08-24T05:53:00.102Z,21.40
2018-08-24T05:55:27.662Z,21.40
2018-08-24T05:57:55.295Z,21.40
2018-08-24T06:00:28.494Z,21.40
2018-08-24T06:02:56.017Z,21.40
2018-08-24T06:05:23.643Z,21.40
2018-08-24T06:07:51.199Z,21.50
2018-08-24T06:10:19.062Z,21.50
2018-08-24T06:12:46.561Z,21.60
2018-08-24T06:15:14.086Z,21.70
2018-08-24T06:17:47.077Z,21.60
2018-08-24T06:20:14.587Z,21.60
2018-08-24T06:22:42.062Z,21.60
2018-08-24T06:25:09.666Z,21.60
2018-08-24T06:27:37.154Z,21.60
2018-08-24T06:30:05.341Z,21.70
2018-08-24T06:32:32.867Z,21.70
2018-08-24T06:35:00.408Z,21.70
2018-08-24T06:37:27.931Z,21.70
2018-08-24T06:39:55.532Z,21.70
2018-08-24T06:42:23.058Z,21.70
2018-08-24T06:44:50.645Z,21.70
2018-08-24T06:47:18.363Z,21.70
2018-08-24T06:49:45.902Z,21.70
2018-08-24T06:52:13.448Z,21.60
2018-08-24T06:54:41.162Z,21.60
2018-08-24T06:57:08.681Z,21.70
2018-08-24T06:59:36.199Z,21.70
2018-08-24T07:02:03.731Z,21.80
2018-08-24T07:04:31.225Z,22.00
2018-08-24T07:06:58.766Z,22.00
2018-08-24T07:09:26.347Z,22.00
2018-08-24T07:11:53.904Z,22.00
2018-08-24T07:14:21.473Z,22.00
2018-08-24T07:16:53.529Z,22.00
2018-08-24T07:19:21.025Z,22.10
2018-08-24T07:21:48.586Z,22.20
2018-08-24T07:24:16.101Z,22.20
2018-08-24T07:26:43.638Z,22.30
2018-08-24T07:29:11.113Z,22.30
2018-08-24T07:31:38.620Z,22.40
2018-08-24T07:34:06.156Z,22.50
2018-08-24T07:36:33.661Z,22.50
2018-08-24T07:39:01.230Z,22.70
2018-08-24T07:41:28.856Z,22.90
2018-08-24T07:43:56.408Z,22.90
2018-08-24T07:46:24.043Z,22.90
2018-08-24T07:48:51.549Z,22.90
2018-08-24T07:51:19.071Z,22.80
2018-08-24T07:53:46.647Z,22.70
2018-08-24T07:56:14.219Z,22.50
2018-08-24T07:58:41.809Z,22.40
2018-08-24T08:01:09.410Z,22.40
2018-08-24T08:03:36.973Z,22.40
2018-08-24T08:06:04.597Z,22.40
2018-08-24T08:08:32.202Z,22.40
2018-08-24T08:10:59.724Z,22.40
2018-08-24T08:13:27.271Z,22.30
2018-08-24T08:15:54.868Z,22.20
2018-08-24T08:18:22.392Z,22.10
2018-08-24T08:20:49.946Z,22.10
2018-08-24T08:23:17.519Z,22.10
2018-08-24T08:25:45.034Z,22.10
2018-08-24T08:28:12.630Z,22.10
2018-08-24T08:30:40.200Z,22.00
2018-08-24T08:33:07.812Z,22.00
2018-08-24T08:35:35.336Z,22.00
2018-08-24T08:38:02.942Z,22.00
2018-08-24T08:40:30.469Z,21.90
2018-08-24T08:42:57.978Z,21.90
2018-08-24T08:45:25.630Z,21.80
2018-08-24T08:47:53.092Z,21.70
2018-08-24T08:50:20.643Z,21.80
2018-08-24T08:52:48.155Z,21.80
2018-08-24T08:55:15.753Z,21.80
2018-08-24T08:57:43.266Z,22.00
2018-08-24T09:00:10.852Z,22.10
2018-08-24T09:02:38.413Z,22.40
2018-08-24T09:05:06.212Z,22.50
2018-08-24T09:07:33.799Z,22.70
2018-08-24T09:10:01.368Z,22.80
2018-08-24T09:12:28.913Z,22.90
2018-08-24T09:14:56.479Z,23.00
2018-08-24T09:19:35.123Z,23.20
2018-08-24T09:22:08.370Z,23.30
2018-08-24T09:24:41.413Z,23.20
2018-08-24T09:27:14.750Z,23.40
2018-08-24T09:29:42.300Z,23.60
2018-08-24T09:32:09.868Z,23.80
2018-08-24T09:34:37.474Z,24.00
2018-08-24T09:37:09.828Z,23.90
2018-08-24T09:39:37.469Z,23.90
2018-08-24T09:42:04.993Z,24.00
2018-08-24T09:44:32.524Z,24.10
2018-08-24T09:47:05.681Z,24.20
2018-08-24T09:49:35.283Z,24.40
2018-08-24T09:52:08.464Z,24.70
2018-08-24T09:54:35.976Z,24.80
2018-08-24T09:57:03.623Z,24.70
2018-08-24T09:59:31.166Z,24.90
2018-08-24T10:02:04.291Z,24.90
2018-08-24T10:04:37.517Z,24.90
2018-08-24T10:07:10.679Z,25.00
2018-08-24T10:09:38.396Z,25.20
2018-08-24T10:12:05.955Z,25.30
2018-08-24T10:14:33.525Z,25.30
2018-08-24T10:17:01.157Z,25.20
2018-08-24T10:19:28.783Z,25.20
2018-08-24T10:21:56.320Z,25.40
2018-08-24T10:24:23.847Z,25.70
2018-08-24T10:26:51.485Z,25.90
2018-08-24T10:29:19.062Z,26.30
2018-08-24T10:31:46.556Z,26.40
2018-08-24T10:34:14.091Z,26.60
2018-08-24T10:36:41.691Z,26.70
2018-08-24T10:39:10.320Z,26.80
2018-08-24T10:41:37.795Z,27.00
2018-08-24T10:44:05.561Z,27.20
2018-08-24T10:46:33.087Z,27.50
2018-08-24T10:49:00.869Z,28.20
2018-08-24T10:51:28.463Z,28.90
2018-08-24T10:53:55.994Z,28.70
2018-08-24T10:56:23.515Z,28.10
2018-08-24T10:58:51.051Z,27.60
2018-08-24T11:01:18.613Z,27.10
2018-08-24T11:03:46.175Z,26.80
2018-08-24T11:06:13.682Z,26.50
2018-08-24T11:08:41.236Z,26.30
2018-08-24T11:11:08.865Z,26.00
2018-08-24T11:13:36.478Z,25.80
2018-08-24T11:16:04.043Z,25.60
2018-08-24T11:18:31.606Z,25.50
2018-08-24T11:20:59.130Z,25.20
2018-08-24T11:23:27.505Z,24.60
2018-08-24T11:25:55.075Z,23.90
2018-08-24T11:28:22.573Z,23.20
2018-08-24T11:30:50.152Z,22.80
2018-08-24T11:33:17.726Z,22.50
2018-08-24T11:35:45.307Z,22.90
2018-08-24T11:38:13.084Z,23.80
2018-08-24T11:40:40.699Z,23.70
2018-08-24T11:43:08.357Z,23.40
2018-08-24T11:45:36.014Z,23.90
2018-08-24T11:48:03.786Z,27.10
2018-08-24T11:50:31.436Z,29.70
2018-08-24T11:52:59.029Z,30.80
2018-08-24T11:55:26.736Z,29.90
2018-08-24T11:57:54.282Z,28.80
2018-08-24T12:00:27.658Z,27.80
2018-08-24T12:02:55.272Z,26.90
2018-08-24T12:05:22.840Z,26.10
2018-08-24T12:07:50.514Z,25.60
2018-08-24T12:10:18.140Z,25.50
2018-08-24T12:12:45.720Z,26.00
2018-08-24T12:15:13.397Z,26.40
2018-08-24T12:17:41.069Z,26.40
2018-08-24T12:20:08.878Z,26.30
2018-08-24T12:22:36.486Z,26.20
2018-08-24T12:25:04.140Z,26.30
2018-08-24T12:27:31.738Z,26.20
2018-08-24T12:29:59.344Z,26.10
2018-08-24T12:32:26.982Z,25.90
2018-08-24T12:35:01.416Z,25.70
2018-08-24T12:37:31.613Z,25.60
2018-08-24T12:39:59.284Z,25.40
2018-08-24T12:42:26.887Z,25.20
2018-08-24T12:44:54.480Z,25.00
2018-08-24T12:47:22.197Z,24.80
2018-08-24T12:49:49.767Z,24.60
2018-08-24T12:52:17.373Z,24.90
2018-08-24T12:54:44.937Z,25.20
2018-08-24T12:57:12.507Z,24.90
2018-08-24T12:59:40.084Z,24.60
2018-08-24T13:02:07.681Z,24.60
2018-08-24T13:04:35.352Z,25.80
2018-08-24T13:07:02.883Z,28.00
2018-08-24T13:09:30.482Z,29.60
2018-08-24T13:11:58.023Z,30.40
2018-08-24T13:14:25.660Z,30.00
2018-08-24T13:16:53.222Z,30.20
2018-08-24T13:19:20.827Z,30.60
2018-08-24T13:21:48.353Z,29.80
2018-08-24T13:24:15.976Z,29.20
2018-08-24T13:26:43.590Z,28.60
2018-08-24T13:29:11.123Z,27.80
2018-08-24T13:31:38.698Z,26.80
2018-08-24T13:34:06.317Z,25.90
2018-08-24T13:36:33.895Z,25.50
2018-08-24T13:39:01.672Z,25.20
2018-08-24T13:41:29.208Z,25.10
2018-08-24T13:43:56.781Z,25.10
2018-08-24T13:46:24.369Z,25.20
2018-08-24T13:48:51.948Z,25.30
2018-08-24T13:51:19.616Z,25.40
2018-08-24T13:53:47.197Z,25.90
2018-08-24T13:56:14.993Z,25.90
2018-08-24T13:58:42.649Z,25.40
2018-08-24T14:01:11.203Z,25.20
2018-08-24T14:03:38.837Z,25.30
2018-08-24T14:06:06.552Z,25.50
2018-08-24T14:08:34.172Z,25.60
2018-08-24T14:11:01.800Z,25.70
2018-08-24T14:13:29.598Z,25.50
2018-08-24T14:15:57.169Z,25.30
2018-08-24T14:18:24.856Z,25.30
2018-08-24T14:20:52.481Z,25.40
2018-08-24T14:23:20.020Z,25.40
2018-08-24T14:25:47.608Z,25.20
2018-08-24T14:28:15.166Z,25.00
2018-08-24T14:30:42.734Z,24.80
2018-08-24T14:33:10.347Z,24.60
2018-08-24T14:35:37.884Z,24.30
2018-08-24T14:38:05.481Z,24.10
2018-08-24T14:40:33.088Z,24.00
2018-08-24T14:43:00.678Z,23.90
2018-08-24T14:45:28.232Z,23.90
2018-08-24T14:47:56.074Z,23.80
2018-08-24T14:50:23.907Z,23.70
2018-08-24T14:52:51.568Z,23.50
2018-08-24T14:55:19.157Z,23.40
2018-08-24T14:57:46.719Z,23.30
2018-08-24T15:00:14.325Z,23.20
2018-08-24T15:02:41.978Z,23.20
2018-08-24T15:05:10.831Z,23.20
2018-08-24T15:07:38.500Z,23.10
2018-08-24T15:10:06.561Z,22.90
2018-08-24T15:12:34.078Z,22.80
2018-08-24T15:15:01.730Z,22.60
2018-08-24T15:17:31.066Z,22.40
2018-08-24T15:19:58.966Z,22.30
2018-08-24T15:22:26.541Z,22.10
2018-08-24T15:24:54.141Z,22.00
2018-08-24T15:27:21.694Z,21.90
2018-08-24T15:29:49.304Z,21.90
2018-08-24T15:32:16.818Z,21.90
2018-08-24T15:34:44.358Z,21.90
2018-08-24T15:37:11.880Z,21.90
2018-08-24T15:39:39.421Z,22.00
2018-08-24T15:42:06.963Z,22.20
2018-08-24T15:44:34.529Z,22.30
2018-08-24T15:47:02.138Z,22.30
2018-08-24T15:49:29.765Z,22.10
2018-08-24T15:51:57.295Z,22.00
2018-08-24T15:54:24.930Z,21.80
2018-08-24T15:56:52.464Z,21.70
2018-08-24T15:59:20.040Z,21.80
2018-08-24T16:01:47.661Z,21.70
2018-08-24T16:04:15.237Z,21.70
2018-08-24T16:06:42.867Z,21.70
2018-08-24T16:09:10.998Z,21.70
2018-08-24T16:11:38.761Z,21.70
2018-08-24T16:14:06.393Z,21.70
2018-08-24T16:16:34.010Z,21.80
2018-08-24T16:19:01.528Z,21.90
2018-08-24T16:21:29.127Z,22.00
2018-08-24T16:23:56.704Z,22.10
2018-08-24T16:26:25.053Z,22.10
2018-08-24T16:28:53.062Z,22.20
2018-08-24T16:31:20.847Z,22.20
2018-08-24T16:33:48.515Z,22.10
2018-08-24T16:36:16.077Z,21.90
2018-08-24T16:38:43.719Z,21.90
2018-08-24T16:41:11.311Z,21.80
2018-08-24T16:43:38.911Z,21.70
2018-08-24T16:46:06.495Z,21.60
2018-08-24T16:48:34.261Z,21.40
2018-08-24T16:51:01.770Z,21.30
2018-08-24T16:53:29.527Z,21.30
2018-08-24T16:55:57.113Z,21.20
2018-08-24T16:58:24.765Z,21.20
2018-08-24T17:00:52.301Z,21.20
2018-08-24T17:03:19.882Z,21.10
2018-08-24T17:05:47.394Z,21.10
2018-08-24T17:08:14.928Z,21.00
2018-08-24T17:10:42.425Z,21.10
2018-08-24T17:13:09.939Z,21.00
2018-08-24T17:15:37.492Z,21.00
2018-08-24T17:18:05.631Z,20.90
2018-08-24T17:20:33.183Z,20.90
2018-08-24T17:23:00.767Z,20.90
2018-08-24T17:25:28.351Z,20.90
2018-08-24T17:27:55.938Z,20.90
2018-08-24T17:30:23.564Z,20.90
2018-08-24T17:32:51.138Z,20.90
2018-08-24T17:35:18.668Z,20.90
2018-08-24T17:37:46.303Z,20.80
2018-08-24T17:40:13.894Z,20.90
2018-08-24T17:42:41.463Z,20.80
2018-08-24T17:45:09.869Z,20.80
2018-08-24T17:47:37.652Z,20.80
2018-08-24T17:50:05.471Z,20.70
2018-08-24T17:52:33.050Z,20.70
2018-08-24T17:55:00.623Z,20.70
2018-08-24T17:57:28.183Z,20.70
2018-08-24T17:59:55.726Z,20.60
2018-08-24T18:02:23.366Z,20.60
2018-08-24T18:04:50.998Z,20.60
2018-08-24T18:07:18.605Z,20.60
2018-08-24T18:09:46.204Z,20.60
2018-08-24T18:12:13.941Z,20.50
2018-08-24T18:14:41.499Z,20.60
2018-08-24T18:17:09.048Z,20.50
2018-08-24T18:19:36.663Z,20.40
2018-08-24T18:22:04.248Z,20.40
2018-08-24T18:24:31.916Z,20.40
2018-08-24T18:26:59.448Z,20.40
2018-08-24T18:29:27.024Z,20.40
2018-08-24T18:31:54.542Z,20.30
2018-08-24T18:34:22.193Z,20.30
2018-08-24T18:36:49.752Z,20.30
2018-08-24T18:39:17.364Z,20.30
2018-08-24T18:41:45.013Z,20.30
2018-08-24T18:44:12.575Z,20.30
2018-08-24T18:46:40.158Z,20.30
2018-08-24T18:49:07.678Z,20.20
2018-08-24T18:51:35.200Z,20.20
2018-08-24T18:54:04.010Z,20.20
2018-08-24T18:56:31.755Z,20.20
2018-08-24T18:58:59.393Z,20.20
2018-08-24T19:01:26.960Z,20.20
2018-08-24T19:03:54.591Z,20.20
2018-08-24T19:06:22.274Z,20.10
2018-08-24T19:08:49.858Z,20.20
2018-08-24T19:11:22.893Z,20.10
2018-08-24T19:13:50.544Z,20.10
2018-08-24T19:16:18.207Z,20.10
2018-08-24T19:18:51.468Z,20.10
2018-08-24T19:21:24.643Z,20.10
2018-08-24T19:23:52.353Z,20.00
2018-08-24T19:26:19.953Z,20.00
2018-08-24T19:28:53.218Z,20.00
2018-08-24T19:31:20.765Z,20.00
2018-08-24T19:33:48.302Z,20.00
2018-08-24T19:36:15.912Z,20.00
2018-08-24T19:38:43.492Z,19.90
2018-08-24T19:41:16.848Z,19.90
2018-08-24T19:43:44.497Z,19.90
2018-08-24T19:46:12.013Z,19.80
2018-08-24T19:48:45.276Z,19.80
2018-08-24T19:51:12.856Z,19.70
2018-08-24T19:53:40.504Z,19.70
2018-08-24T19:56:08.676Z,19.60
2018-08-24T19:58:41.890Z,19.60
2018-08-24T20:01:09.469Z,19.60
2018-08-24T20:03:37.084Z,19.50
2018-08-24T20:06:10.400Z,19.50
2018-08-24T20:08:43.710Z,19.50
2018-08-24T20:11:11.311Z,19.40
2018-08-24T20:13:38.914Z,19.40
2018-08-24T20:16:12.172Z,19.40
2018-08-24T20:18:40.521Z,19.30
2018-08-24T20:21:08.173Z,19.30
2018-08-24T20:23:35.755Z,19.30
2018-08-24T20:26:03.334Z,19.20
2018-08-24T20:28:30.905Z,19.20
2018-08-24T20:30:58.468Z,19.20
2018-08-24T20:33:26.061Z,19.20
2018-08-24T20:35:53.644Z,19.20
2018-08-24T20:38:21.254Z,19.20
2018-08-24T20:40:48.834Z,19.10
2018-08-24T20:43:16.448Z,19.10
2018-08-24T20:45:44.016Z,19.10
2018-08-24T20:48:11.618Z,19.10
2018-08-24T20:50:39.181Z,19.00
2018-08-24T20:53:06.830Z,19.00
2018-08-24T20:55:35.487Z,19.00
2018-08-24T20:58:03.000Z,18.90
2018-08-24T21:00:30.596Z,18.90
2018-08-24T21:02:58.207Z,18.80
2018-08-24T21:05:25.783Z,18.80
2018-08-24T21:07:53.353Z,18.70
2018-08-24T21:10:20.998Z,18.70
2018-08-24T21:12:48.588Z,18.60
2018-08-24T21:15:16.190Z,18.60
2018-08-24T21:17:43.830Z,18.60
2018-08-24T21:20:11.494Z,18.60
2018-08-24T21:22:39.097Z,18.60
2018-08-24T21:25:07.086Z,18.60
2018-08-24T21:27:34.649Z,18.60
2018-08-24T21:30:02.260Z,18.50
2018-08-24T21:32:29.786Z,18.50
2018-08-24T21:34:57.310Z,18.50
2018-08-24T21:37:24.829Z,18.50
2018-08-24T21:39:52.399Z,18.50
2018-08-24T21:42:19.921Z,18.50
2018-08-24T21:44:47.517Z,18.40
2018-08-24T21:47:15.054Z,18.40
2018-08-24T21:49:42.618Z,18.40
2018-08-24T21:52:10.220Z,18.30
2018-08-24T21:54:37.803Z,18.30
2018-08-24T21:57:05.351Z,18.30
2018-08-24T21:59:32.902Z,18.30
2018-08-24T22:02:00.449Z,18.20
2018-08-24T22:04:28.098Z,18.20
2018-08-24T22:06:55.603Z,18.10
2018-08-24T22:09:23.183Z,18.10
2018-08-24T22:11:50.723Z,18.10
2018-08-24T22:14:18.289Z,18.10
2018-08-24T22:16:45.830Z,18.10
2018-08-24T22:19:13.351Z,18.10
2018-08-24T22:21:40.924Z,18.10
2018-08-24T22:24:08.669Z,18.00
2018-08-24T22:26:36.565Z,18.00
2018-08-24T22:29:04.311Z,17.90
2018-08-24T22:31:31.810Z,17.80
2018-08-24T22:33:59.354Z,17.70
2018-08-24T22:36:26.920Z,17.70
2018-08-24T22:38:54.477Z,17.70
2018-08-24T22:41:22.085Z,17.70
2018-08-24T22:43:49.584Z,17.70
2018-08-24T22:46:17.114Z,17.70
2018-08-24T22:48:44.647Z,17.70
2018-08-24T22:51:12.162Z,17.70
2018-08-24T22:53:39.695Z,17.70
2018-08-24T22:56:07.235Z,17.70
2018-08-24T22:58:34.767Z,17.60
2018-08-24T23:01:02.292Z,17.60
2018-08-24T23:03:29.859Z,17.60
2018-08-24T23:05:57.441Z,17.60
2018-08-24T23:08:24.947Z,17.60
2018-08-24T23:10:52.453Z,17.70
2018-08-24T23:13:19.953Z,17.70
2018-08-24T23:15:47.460Z,17.70
2018-08-24T23:18:14.996Z,17.80
2018-08-24T23:20:42.575Z,17.80
2018-08-24T23:23:10.135Z,17.80
2018-08-24T23:25:37.623Z,17.90
2018-08-24T23:28:05.233Z,17.90
2018-08-24T23:30:32.848Z,17.90
2018-08-24T23:33:00.413Z,17.90
2018-08-24T23:35:27.907Z,17.90
2018-08-24T23:37:55.425Z,17.90
2018-08-24T23:40:22.903Z,17.90
2018-08-24T23:42:50.378Z,17.90
2018-08-24T23:45:17.966Z,17.90
2018-08-24T23:47:45.461Z,17.80
2018-08-24T23:50:13.054Z,17.80
2018-08-24T23:52:40.594Z,17.90
2018-08-24T23:55:08.096Z,17.90
2018-08-24T23:57:35.576Z,17.90
